Time;durP1;ratioP1;P1;durP2;ratioP2;P2;SDS_P1;SDS_P2;PMS_P1;PMS_P2;Temp;Humidity;BMP_temperature;BMP_pressure;BME280_temperature;BME280_humidity;BME280_pressure;Samples;Min_cycle;Max_cycle;Signal;HPM_P1;HPM_P2
2023/01/28 00:10:33;;;;;;;70.18;32.22;;;1.30;99.90;;;;;;2603046;54;20098;31
2023/01/28 00:19:46;;;;;;;62.55;29.25;;;1.30;99.90;;;;;;2603368;54;20776;31
2023/01/28 00:28:52;;;;;;;59.53;27.10;;;1.30;99.90;;;;;;2640661;39;20038;-96
2023/01/28 00:34:50;;;;;;;57.65;27.50;;;1.30;99.90;;;;;;2603274;54;20026;31
2023/01/28 00:38:04;;;;;;;56.45;25.83;;;1.30;99.90;;;;;;2603375;54;20053;31
2023/01/28 00:40:47;;;;;;;58.60;27.60;;;1.20;99.90;;;;;;2603288;54;20093;31
2023/01/28 01:18:36;;;;;;;58.28;29.98;;;1.00;99.90;;;;;;2602970;54;20038;31
2023/01/28 01:21:32;;;;;;;53.73;27.43;;;0.90;99.90;;;;;;2602774;54;20969;31
2023/01/28 01:27:04;;;;;;;51.30;26.42;;;0.90;99.90;;;;;;2602911;54;20943;31
2023/01/28 01:29:52;;;;;;;61.90;27.80;;;0.80;99.90;;;;;;2602986;54;20075;31
2023/01/28 01:32:44;;;;;;;50.58;26.17;;;0.80;99.90;;;;;;2603188;54;20064;31
2023/01/28 01:36:01;;;;;;;53.22;26.95;;;0.80;99.90;;;;;;2602978;54;20031;31
2023/01/28 01:42:18;;;;;;;58.90;27.33;;;0.80;99.90;;;;;;2621879;46;20034;31
2023/01/28 01:45:06;;;;;;;55.13;29.00;;;0.70;99.90;;;;;;2603906;54;20089;31
2023/01/28 01:47:53;;;;;;;58.78;28.52;;;0.70;99.90;;;;;;2702557;39;20595;31
2023/01/28 01:50:49;;;;;;;56.20;27.88;;;0.70;99.90;;;;;;2603811;54;20759;31
2023/01/28 01:53:32;;;;;;;54.70;26.30;;;0.70;99.90;;;;;;2622244;46;20042;31
2023/01/28 01:56:45;;;;;;;56.50;29.10;;;0.70;99.90;;;;;;2621185;46;20050;31
2023/01/28 02:05:31;;;;;;;56.30;27.25;;;0.60;99.90;;;;;;2603523;54;20023;31
2023/01/28 02:11:20;;;;;;;51.47;25.00;;;0.70;99.90;;;;;;2603875;54;20748;31
2023/01/28 02:13:56;;;;;;;53.70;25.75;;;0.60;99.90;;;;;;2603662;54;20838;31
2023/01/28 02:19:34;;;;;;;55.97;26.30;;;0.60;99.90;;;;;;2607420;46;20273;31
2023/01/28 02:22:37;;;;;;;58.78;31.48;;;0.60;99.90;;;;;;2603812;54;20022;31
2023/01/28 02:25:26;;;;;;;;;;;0.70;99.90;;;;;;2603592;54;20119;31
2023/01/28 02:28:35;;;;;;;54.70;28.27;;;0.60;99.90;;;;;;2603841;54;19942;31
2023/01/28 03:03:07;;;;;;;57.27;29.10;;;0.60;99.90;;;;;;2603455;54;20030;31
2023/01/28 04:05:26;;;;;;;61.03;28.98;;;0.20;99.90;;;;;;2634745;39;20041;-95
2023/01/28 04:24:21;;;;;;;57.72;30.00;;;0.30;99.90;;;;;;2603247;54;20141;31
2023/01/28 04:29:52;;;;;;;65.63;30.83;;;0.30;99.90;;;;;;2603202;54;20812;31
2023/01/28 05:40:07;;;;;;;41.30;23.25;;;-0.10;99.90;;;;;;2619538;46;20018;31
2023/01/28 05:42:45;;;;;;;50.17;26.92;;;-0.10;99.90;;;;;;2611215;46;20081;31
2023/01/28 06:07:57;;;;;;;42.05;24.65;;;-0.10;99.90;;;;;;2601251;54;20934;31
2023/01/28 06:34:51;;;;;;;40.65;22.05;;;-0.10;99.90;;;;;;2602490;54;20117;31
2023/01/28 07:13:02;;;;;;;38.28;22.33;;;-0.10;99.90;;;;;;2602996;54;20751;31
2023/01/28 07:28:09;;;;;;;35.50;20.90;;;0.00;99.90;;;;;;2602752;54;19942;31
2023/01/28 07:31:25;;;;;;;49.20;28.13;;;-0.10;99.90;;;;;;2603637;54;20843;31
2023/01/28 07:34:40;;;;;;;46.35;25.02;;;-0.10;99.90;;;;;;2603372;54;20876;31
2023/01/28 07:37:25;;;;;;;43.15;22.75;;;-0.10;99.90;;;;;;2603454;54;20085;31
2023/01/28 07:40:20;;;;;;;41.40;23.65;;;-0.10;99.90;;;;;;2602954;54;20026;31
2023/01/28 07:43:12;;;;;;;46.83;23.17;;;-0.10;99.90;;;;;;2621568;46;20042;31
2023/01/28 07:46:38;;;;;;;;;;;0.00;99.90;;;;;;2603745;54;20573;31
2023/01/28 08:20:33;;;;;;;36.05;22.25;;;-0.10;99.90;;;;;;2600997;54;20824;31
2023/01/28 09:15:24;;;;;;;31.58;18.38;;;-0.20;99.90;;;;;;2603558;47;20025;31
2023/01/28 09:21:21;;;;;;;30.25;18.65;;;-0.20;99.90;;;;;;2602023;54;20057;31
2023/01/28 09:31:01;;;;;;;28.05;16.58;;;-0.20;99.90;;;;;;2603015;54;20048;31
2023/01/28 11:56:46;;;;;;;15.10;10.15;;;-0.20;99.90;;;;;;2600918;54;20010;31
2023/01/28 12:41:14;;;;;;;;;;;;;;;;;;;;;
2023/01/28 14:02:53;;;;;;;9.10;5.75;;;-0.40;99.90;;;;;;2601375;54;20953;31
2023/01/28 14:37:03;;;;;;;14.00;7.28;;;-0.40;99.90;;;;;;2603399;54;20112;31
2023/01/28 14:47:03;;;;;;;9.65;5.28;;;-0.50;99.90;;;;;;2603578;54;20029;31
2023/01/28 15:15:13;;;;;;;9.20;5.70;;;-0.50;99.90;;;;;;2602830;54;20019;31
2023/01/28 15:24:31;;;;;;;10.90;6.10;;;-0.70;99.90;;;;;;2603481;54;20030;31
2023/01/28 15:29:54;;;;;;;14.70;7.43;;;-0.70;99.90;;;;;;2619791;46;20865;31
2023/01/28 15:32:37;;;;;;;11.23;6.25;;;-0.70;99.90;;;;;;2608002;46;20022;31
2023/01/28 15:35:12;;;;;;;12.00;6.68;;;-0.80;99.90;;;;;;2603537;54;20018;31
2023/01/28 15:37:57;;;;;;;12.25;7.47;;;-0.70;99.90;;;;;;2603418;54;20071;31
2023/01/28 15:43:47;;;;;;;14.63;8.35;;;-0.80;99.90;;;;;;2603475;54;20978;31
2023/01/28 15:49:50;;;;;;;14.13;7.97;;;-0.80;99.90;;;;;;2603404;54;20030;31
2023/01/28 15:52:52;;;;;;;9.80;7.03;;;-0.80;99.90;;;;;;2603504;54;20033;31
2023/01/28 15:55:43;;;;;;;12.63;7.43;;;-0.80;99.90;;;;;;2603268;54;20048;31
2023/01/28 15:58:20;;;;;;;;;;;-0.80;99.90;;;;;;2603518;54;20863;31
2023/01/28 16:01:15;;;;;;;13.50;8.20;;;-0.80;99.90;;;;;;2603079;54;20835;31
2023/01/28 16:04:08;;;;;;;13.73;7.30;;;-0.80;99.90;;;;;;2603531;54;20533;31
2023/01/28 16:06:48;;;;;;;11.18;7.85;;;-0.90;99.90;;;;;;2603404;54;20813;31
2023/01/28 16:09:38;;;;;;;12.32;7.82;;;-0.90;99.90;;;;;;2603225;54;20037;31
2023/01/28 16:12:15;;;;;;;19.30;7.82;;;-0.90;99.90;;;;;;2603323;54;20026;31
2023/01/28 16:14:57;;;;;;;12.10;8.07;;;-0.90;99.90;;;;;;2603249;54;20031;31
2023/01/28 16:17:35;;;;;;;12.25;7.50;;;-0.90;99.90;;;;;;2603288;54;20030;31
2023/01/28 16:20:26;;;;;;;12.50;8.53;;;-0.90;99.90;;;;;;2603361;54;20039;31
2023/01/28 16:23:08;;;;;;;13.07;7.90;;;-0.90;99.90;;;;;;2603344;54;20147;31
2023/01/28 16:26:24;;;;;;;19.60;8.15;;;-1.00;99.90;;;;;;2603351;54;20022;31
2023/01/28 16:29:21;;;;;;;10.60;7.30;;;-1.00;99.90;;;;;;2603126;54;20052;31
2023/01/28 16:47:58;;;;;;;13.40;7.85;;;-1.00;99.90;;;;;;2603160;54;20026;31
2023/01/28 16:50:34;;;;;;;11.93;8.60;;;-1.00;99.90;;;;;;2621179;46;20029;31
2023/01/28 16:53:11;;;;;;;12.43;8.03;;;-1.00;99.90;;;;;;2603526;54;20089;31
2023/01/28 16:55:47;;;;;;;12.48;8.02;;;-1.00;99.90;;;;;;2701762;39;20726;31
2023/01/28 16:58:24;;;;;;;;;;;-1.00;99.90;;;;;;2603211;54;20027;31
2023/01/28 17:01:05;;;;;;;18.25;10.10;;;-1.00;99.90;;;;;;2603306;54;19942;31
2023/01/28 17:03:51;;;;;;;;;;;;;;;;;;;;;
2023/01/28 17:06:29;;;;;;;14.43;9.40;;;-1.00;99.90;;;;;;2603225;54;20030;31
2023/01/28 17:09:12;;;;;;;16.42;9.90;;;-1.00;99.90;;;;;;2603010;54;20033;31
2023/01/28 17:11:47;;;;;;;15.80;9.77;;;-1.00;99.90;;;;;;2621423;46;20977;31
2023/01/28 17:14:24;;;;;;;13.15;9.18;;;-0.90;99.90;;;;;;2603162;54;20037;31
2023/01/28 17:17:01;;;;;;;21.88;11.57;;;-0.90;99.90;;;;;;2701860;39;21014;31
2023/01/28 17:19:35;;;;;;;14.35;8.85;;;-0.90;99.90;;;;;;2603026;54;20030;31
2023/01/28 17:22:10;;;;;;;14.50;10.15;;;-0.90;99.90;;;;;;2621808;47;20026;31
2023/01/28 17:24:46;;;;;;;16.45;11.02;;;-0.90;99.90;;;;;;2603189;54;20097;31
2023/01/28 17:27:22;;;;;;;16.55;12.57;;;-0.90;99.90;;;;;;2603160;54;20889;31
2023/01/28 17:29:57;;;;;;;18.77;10.88;;;-0.80;99.90;;;;;;2621589;47;20880;31
2023/01/28 17:32:35;;;;;;;15.68;9.48;;;-0.80;99.90;;;;;;2602985;54;20855;31
2023/01/28 17:35:13;;;;;;;15.23;9.60;;;-0.80;99.90;;;;;;2603052;54;20865;31
2023/01/28 17:37:48;;;;;;;11.90;8.15;;;-0.80;99.90;;;;;;2603114;54;20239;31
2023/01/28 17:40:24;;;;;;;13.10;8.20;;;-0.90;99.90;;;;;;2603017;54;20027;31
2023/01/28 17:42:59;;;;;;;10.00;7.65;;;-0.90;99.90;;;;;;2602931;54;20033;31
2023/01/28 17:45:34;;;;;;;11.00;8.40;;;-0.90;99.90;;;;;;2621659;47;20770;31
2023/01/28 17:48:12;;;;;;;10.85;7.70;;;-0.80;99.90;;;;;;2603042;54;20850;31
2023/01/28 17:50:50;;;;;;;11.20;7.73;;;-0.90;99.90;;;;;;2621509;47;20022;31
2023/01/28 17:53:24;;;;;;;11.73;8.13;;;-0.90;99.90;;;;;;2603157;54;20030;31
2023/01/28 17:55:59;;;;;;;14.82;9.15;;;-0.90;99.90;;;;;;2603119;54;20104;31
2023/01/28 17:58:33;;;;;;;14.55;8.75;;;-0.80;99.90;;;;;;2603102;54;20104;31
2023/01/28 18:01:11;;;;;;;12.25;8.50;;;-0.70;99.90;;;;;;2602927;54;20046;31
2023/01/28 18:03:53;;;;;;;12.52;8.23;;;-0.70;99.90;;;;;;2621553;47;20085;31
2023/01/28 18:06:32;;;;;;;10.77;7.95;;;-0.50;99.90;;;;;;2621570;47;20029;31
2023/01/28 18:09:07;;;;;;;12.10;9.00;;;-0.50;99.90;;;;;;2602839;54;20026;31
2023/01/28 18:11:42;;;;;;;12.87;9.13;;;-0.50;99.90;;;;;;2621870;47;20089;31
2023/01/28 18:14:17;;;;;;;14.27;8.80;;;-0.50;99.90;;;;;;2603091;54;20592;31
2023/01/28 18:16:52;;;;;;;13.83;8.80;;;-0.50;99.90;;;;;;2602789;54;20026;31
2023/01/28 18:19:31;;;;;;;16.38;9.23;;;-0.50;99.90;;;;;;2602875;54;20892;31
2023/01/28 18:22:05;;;;;;;17.35;11.05;;;-0.50;99.90;;;;;;2602867;54;20481;31
2023/01/28 18:24:40;;;;;;;19.20;11.30;;;-0.50;99.90;;;;;;2603760;54;20881;31
2023/01/28 18:27:16;;;;;;;13.90;9.55;;;-0.50;99.90;;;;;;2702246;39;21297;31
2023/01/28 18:29:51;;;;;;;14.10;10.07;;;-0.50;99.90;;;;;;2621899;46;20052;31
2023/01/28 18:32:26;;;;;;;17.40;9.88;;;-0.50;99.90;;;;;;2621946;46;21352;31
2023/01/28 18:35:05;;;;;;;13.15;9.75;;;-0.60;99.90;;;;;;2603757;54;20147;31
2023/01/28 18:37:40;;;;;;;14.63;9.30;;;-0.50;99.90;;;;;;2603844;54;20824;31
2023/01/28 18:40:15;;;;;;;11.60;7.63;;;-0.60;99.90;;;;;;2603823;54;20115;31
2023/01/28 18:42:49;;;;;;;11.55;8.05;;;-0.70;99.90;;;;;;2603701;54;20093;31
2023/01/28 18:45:23;;;;;;;12.73;7.28;;;-0.70;99.90;;;;;;2622518;46;20026;31
2023/01/28 18:47:58;;;;;;;10.57;6.10;;;-0.80;99.90;;;;;;2622024;46;20089;31
2023/01/28 18:50:36;;;;;;;6.47;3.65;;;-0.80;99.90;;;;;;2603730;54;20030;31
2023/01/28 18:53:10;;;;;;;5.55;3.50;;;-0.80;99.90;;;;;;2603953;54;20037;31
2023/01/28 18:55:45;;;;;;;7.30;3.88;;;-0.90;99.90;;;;;;2603700;54;20058;31
2023/01/28 18:58:19;;;;;;;8.50;4.43;;;-0.90;99.90;;;;;;2622138;46;20026;31
2023/01/28 19:00:54;;;;;;;7.77;4.73;;;-0.90;99.90;;;;;;2702082;39;20537;31
2023/01/28 19:03:29;;;;;;;8.65;4.88;;;-0.90;99.90;;;;;;2603531;54;20744;31
2023/01/28 19:06:08;;;;;;;9.05;5.45;;;-0.90;99.90;;;;;;2603849;54;20825;31
2023/01/28 19:08:42;;;;;;;9.18;4.55;;;-0.90;99.90;;;;;;2603791;54;20892;31
2023/01/28 19:11:17;;;;;;;8.40;4.70;;;-0.90;99.90;;;;;;2702184;39;22364;31
2023/01/28 19:13:51;;;;;;;6.68;4.35;;;-0.80;99.90;;;;;;2621837;46;21351;31
2023/01/28 19:16:27;;;;;;;8.05;5.55;;;-0.90;99.90;;;;;;2603641;54;20057;31
2023/01/28 19:19:02;;;;;;;9.70;5.53;;;-0.90;99.90;;;;;;2603565;54;20947;31
2023/01/28 19:21:40;;;;;;;10.93;6.85;;;-0.80;99.90;;;;;;2621784;46;20081;31
2023/01/28 19:24:15;;;;;;;11.30;6.25;;;-0.80;99.90;;;;;;2702055;39;20532;31
2023/01/28 19:26:51;;;;;;;8.90;6.00;;;-0.80;99.90;;;;;;2603631;54;20126;31
2023/01/28 19:29:27;;;;;;;8.25;5.80;;;-0.80;99.90;;;;;;2603439;54;20988;31
2023/01/28 19:32:03;;;;;;;8.77;5.10;;;-0.80;99.90;;;;;;2621816;46;20856;31
2023/01/28 19:34:38;;;;;;;;;;;-0.80;99.90;;;;;;2603090;54;20852;31
2023/01/28 19:37:15;;;;;;;6.93;4.50;;;-0.80;99.90;;;;;;2603442;54;20757;31
2023/01/28 19:39:54;;;;;;;8.50;4.70;;;-0.80;99.90;;;;;;2603691;54;20249;31
2023/01/28 19:42:40;;;;;;;8.90;5.50;;;-0.80;99.90;;;;;;2603554;54;20026;31
2023/01/28 19:45:14;;;;;;;12.60;6.15;;;-0.80;99.90;;;;;;2603373;54;20487;31
2023/01/28 19:47:52;;;;;;;10.02;5.72;;;-0.80;99.90;;;;;;2621546;46;20861;31
2023/01/28 19:50:34;;;;;;;11.40;6.47;;;-0.80;99.90;;;;;;2602992;54;20866;31
2023/01/28 19:53:17;;;;;;;11.57;6.93;;;-0.70;99.90;;;;;;2621691;46;20905;31
2023/01/28 19:55:55;;;;;;;8.57;5.50;;;-0.70;99.90;;;;;;2621487;46;20986;31
2023/01/28 19:58:34;;;;;;;10.70;6.47;;;-0.70;99.90;;;;;;2621617;46;20090;31
2023/01/28 20:01:11;;;;;;;13.50;6.55;;;-0.70;99.90;;;;;;2603535;54;20127;31
2023/01/28 20:03:53;;;;;;;10.10;6.75;;;-0.70;99.90;;;;;;2621675;46;20027;31
2023/01/28 20:06:31;;;;;;;10.20;6.70;;;-0.70;99.90;;;;;;2603398;54;20856;31
2023/01/28 20:09:15;;;;;;;24.17;10.50;;;-0.70;99.90;;;;;;2603353;54;20093;31
2023/01/28 20:12:01;;;;;;;50.15;17.95;;;-0.60;99.90;;;;;;2603459;54;20029;31
2023/01/28 20:14:43;;;;;;;58.78;21.75;;;-0.70;99.90;;;;;;2603161;54;20052;31
2023/01/28 20:17:23;;;;;;;64.55;21.00;;;-0.60;99.90;;;;;;2603514;54;20022;31
2023/01/28 20:20:02;;;;;;;24.90;9.15;;;-0.60;99.90;;;;;;2602758;54;20894;31
2023/01/28 20:22:40;;;;;;;17.67;7.07;;;-0.60;99.90;;;;;;2611478;46;20964;31
2023/01/28 20:25:21;;;;;;;11.38;6.03;;;-0.60;99.90;;;;;;2602494;54;20030;31
2023/01/28 20:28:00;;;;;;;11.75;6.65;;;-0.60;99.90;;;;;;2603244;54;20922;31
2023/01/28 20:30:39;;;;;;;9.07;5.80;;;-0.60;99.90;;;;;;2603330;54;20030;31
2023/01/28 20:33:19;;;;;;;9.85;6.20;;;-0.60;99.90;;;;;;2603041;54;19934;31
2023/01/28 20:36:03;;;;;;;10.35;5.60;;;-0.50;99.90;;;;;;2603174;54;20029;31
2023/01/28 20:38:44;;;;;;;8.88;6.07;;;-0.50;99.90;;;;;;2621956;46;20053;31
2023/01/28 20:41:27;;;;;;;7.10;5.10;;;-0.60;99.90;;;;;;2622037;46;21322;31
2023/01/28 20:44:05;;;;;;;8.70;5.65;;;-0.50;99.90;;;;;;2603103;54;20042;31
2023/01/28 20:46:42;;;;;;;10.32;5.93;;;-0.50;99.90;;;;;;2602477;54;20899;31
2023/01/28 20:49:21;;;;;;;9.35;6.60;;;-0.60;99.90;;;;;;2602337;54;20025;31
2023/01/28 20:52:04;;;;;;;11.88;6.78;;;-0.50;99.90;;;;;;2602362;54;20054;31
2023/01/28 20:54:42;;;;;;;12.10;6.70;;;-0.60;99.90;;;;;;2602379;54;20905;31
2023/01/28 20:57:23;;;;;;;11.35;6.47;;;-0.50;99.90;;;;;;2621923;46;20099;31
2023/01/28 21:00:01;;;;;;;11.57;7.25;;;-0.50;99.90;;;;;;2603120;54;20939;31
2023/01/28 21:02:38;;;;;;;;;;;-0.50;99.90;;;;;;2603408;54;20765;31
2023/01/28 21:05:16;;;;;;;10.93;6.55;;;-0.50;99.90;;;;;;2602801;54;19941;31
2023/01/28 21:07:52;;;;;;;13.63;7.20;;;-0.50;99.90;;;;;;2603037;54;20076;31
2023/01/28 21:10:29;;;;;;;18.63;10.15;;;-0.50;99.90;;;;;;2621346;46;20952;31
2023/01/28 21:13:09;;;;;;;22.23;10.93;;;-0.50;99.90;;;;;;2603111;54;20832;31
2023/01/28 21:15:46;;;;;;;17.98;10.07;;;-0.50;99.90;;;;;;2603266;54;20096;31
2023/01/28 21:18:24;;;;;;;17.45;9.90;;;-0.50;99.90;;;;;;2603573;54;20042;31
2023/01/28 21:21:04;;;;;;;15.70;9.63;;;-0.50;99.90;;;;;;2655625;31;22508;31
2023/01/28 21:23:44;;;;;;;16.90;9.45;;;-0.50;99.90;;;;;;2602990;54;20775;31
2023/01/28 21:26:19;;;;;;;19.83;9.90;;;-0.50;99.90;;;;;;2603029;54;20652;31
2023/01/28 21:29:00;;;;;;;17.45;10.55;;;-0.50;99.90;;;;;;2603304;54;20061;31
2023/01/28 21:31:40;;;;;;;18.95;11.13;;;-0.50;99.90;;;;;;2602836;54;20033;31
2023/01/28 21:34:19;;;;;;;17.13;11.10;;;-0.50;99.90;;;;;;2621511;47;20822;31
2023/01/28 21:37:00;;;;;;;19.75;10.38;;;-0.50;99.90;;;;;;2621288;47;20863;31
2023/01/28 21:39:41;;;;;;;18.77;11.13;;;-0.50;99.90;;;;;;2602272;54;20879;31
2023/01/28 21:42:18;;;;;;;18.83;10.97;;;-0.40;99.90;;;;;;2602236;54;21047;31
2023/01/28 21:45:00;;;;;;;24.30;12.67;;;-0.50;99.90;;;;;;2602331;54;20105;31
2023/01/28 21:47:36;;;;;;;19.35;11.15;;;-0.50;99.90;;;;;;2602477;54;20070;31
2023/01/28 21:50:16;;;;;;;20.67;10.85;;;-0.50;99.90;;;;;;2602232;54;20050;31
2023/01/28 21:52:56;;;;;;;16.00;8.75;;;-0.50;99.90;;;;;;2602213;54;20780;31
2023/01/28 21:55:32;;;;;;;15.40;9.07;;;-0.50;99.90;;;;;;2602249;54;20762;31
2023/01/28 22:01:05;;;;;;;16.53;8.00;;;-0.50;99.90;;;;;;2605149;46;20030;31
2023/01/28 22:03:48;;;;;;;12.77;7.70;;;-0.50;99.90;;;;;;2603847;54;20960;31
2023/01/28 22:06:26;;;;;;;16.27;8.95;;;-0.50;99.90;;;;;;2603906;54;20900;31
2023/01/28 22:09:10;;;;;;;15.80;8.90;;;-0.50;99.90;;;;;;2603820;54;20726;31
2023/01/28 22:11:46;;;;;;;17.30;8.25;;;-0.50;99.90;;;;;;2603592;54;20944;31
2023/01/28 22:14:25;;;;;;;20.30;8.90;;;-0.50;99.90;;;;;;2603780;54;20835;31
2023/01/28 22:17:06;;;;;;;16.63;7.90;;;-0.40;99.90;;;;;;2603682;54;20029;31
2023/01/28 22:19:46;;;;;;;11.32;7.45;;;-0.50;99.90;;;;;;2622612;46;20033;31
2023/01/28 22:22:24;;;;;;;14.93;7.85;;;-0.50;99.90;;;;;;2603816;54;20881;31
2023/01/28 22:25:07;;;;;;;14.45;8.15;;;-0.50;99.90;;;;;;2604087;54;20099;31
2023/01/28 22:27:44;;;;;;;16.13;8.40;;;-0.50;99.90;;;;;;2604078;54;20037;31
2023/01/28 22:30:29;;;;;;;19.58;9.27;;;-0.50;99.90;;;;;;2603608;54;20125;31
2023/01/28 22:33:12;;;;;;;15.32;8.57;;;-0.50;99.90;;;;;;2603574;54;20127;31
2023/01/28 22:38:51;;;;;;;15.63;8.23;;;-0.50;99.90;;;;;;2603592;54;20927;31
2023/01/28 22:41:50;;;;;;;16.55;8.57;;;-0.50;99.90;;;;;;2603939;54;20113;31
2023/01/28 22:44:28;;;;;;;13.95;8.20;;;-0.50;99.90;;;;;;2622073;46;20037;31
2023/01/28 22:47:13;;;;;;;18.50;9.57;;;-0.40;99.90;;;;;;2611624;46;20077;31
2023/01/28 22:50:05;;;;;;;14.45;7.72;;;-0.40;99.90;;;;;;2603914;54;19977;31
2023/01/28 22:52:41;;;;;;;14.80;7.68;;;-0.40;99.90;;;;;;2603795;54;20020;31
2023/01/28 22:55:22;;;;;;;15.68;8.13;;;-0.40;99.90;;;;;;2603774;54;20798;31
2023/01/28 22:58:04;;;;;;;13.85;7.35;;;-0.40;99.90;;;;;;2622181;46;20667;31
2023/01/28 23:00:49;;;;;;;15.05;6.43;;;-0.40;99.90;;;;;;2603595;54;20857;31
2023/01/28 23:03:33;;;;;;;12.07;7.15;;;-0.50;99.90;;;;;;2622146;46;20612;31
2023/01/28 23:06:22;;;;;;;9.27;6.20;;;-0.50;99.90;;;;;;2603523;54;21267;31
2023/01/28 23:08:57;;;;;;;11.85;5.90;;;-0.50;99.90;;;;;;2603520;54;20135;31
2023/01/28 23:11:39;;;;;;;10.52;4.82;;;-0.50;99.90;;;;;;2603706;54;20026;31
2023/01/28 23:25:52;;;;;;;9.70;6.13;;;-0.60;99.90;;;;;;2622111;46;20061;31
2023/01/28 23:28:32;;;;;;;15.70;7.78;;;-0.60;99.90;;;;;;2603612;54;20092;31
2023/01/28 23:31:11;;;;;;;13.98;6.70;;;-0.60;99.90;;;;;;2603734;54;20022;31
2023/01/28 23:33:55;;;;;;;14.30;7.10;;;-0.60;99.90;;;;;;2603388;54;20935;31
2023/01/28 23:36:56;;;;;;;13.70;7.43;;;-0.60;99.90;;;;;;2621725;46;20100;31
2023/01/28 23:39:50;;;;;;;12.53;6.80;;;-0.70;99.90;;;;;;2603639;54;20026;31
2023/01/28 23:42:34;;;;;;;12.73;7.03;;;-0.70;99.90;;;;;;2603405;54;20646;31
2023/01/28 23:45:17;;;;;;;9.65;5.82;;;-0.70;99.90;;;;;;2603666;54;20031;31
2023/01/28 23:47:56;;;;;;;9.68;5.75;;;-0.60;99.90;;;;;;2603435;54;20029;31
2023/01/28 23:50:39;;;;;;;10.30;5.57;;;-0.70;99.90;;;;;;2621754;46;20045;31
2023/01/28 23:53:23;;;;;;;11.35;5.78;;;-0.70;99.90;;;;;;2603536;54;20046;31
2023/01/28 23:56:05;;;;;;;10.02;5.80;;;-0.80;99.90;;;;;;2603277;54;20933;31
2023/01/28 23:58:40;;;;;;;10.50;5.40;;;-0.80;99.90;;;;;;2603702;54;20031;31
